createdAt,value
2018-03-25T00:01:00.453Z,19.33
2018-03-25T00:02:01.082Z,19.27
2018-03-25T00:03:01.653Z,19.29
2018-03-25T00:04:02.229Z,19.21
2018-03-25T00:05:02.847Z,19.18
2018-03-25T00:06:03.422Z,19.21
2018-03-25T00:07:04.044Z,19.22
2018-03-25T00:08:04.616Z,19.27
2018-03-25T00:09:05.193Z,19.22
2018-03-25T00:10:05.767Z,19.11
2018-03-25T00:11:06.380Z,19.04
2018-03-25T00:12:06.955Z,19.15
2018-03-25T00:13:07.527Z,19.12
2018-03-25T00:14:08.099Z,19.15
2018-03-25T00:15:08.674Z,19.07
2018-03-25T00:16:09.252Z,19.07
2018-03-25T00:17:09.913Z,19.08
2018-03-25T00:18:10.484Z,18.95
2018-03-25T00:19:11.056Z,19.00
2018-03-25T00:20:11.631Z,18.98
2018-03-25T00:21:12.255Z,18.95
2018-03-25T00:22:12.832Z,18.89
2018-03-25T00:23:13.404Z,18.93
2018-03-25T00:24:13.978Z,18.93
2018-03-25T00:25:14.646Z,18.93
2018-03-25T00:26:15.218Z,18.86
2018-03-25T00:27:15.793Z,18.84
2018-03-25T00:28:16.366Z,18.75
2018-03-25T00:29:16.939Z,18.78
2018-03-25T00:31:27.988Z,18.74
2018-03-25T00:32:28.564Z,18.63
2018-03-25T00:33:29.237Z,18.65
2018-03-25T00:34:29.812Z,18.63
2018-03-25T00:35:30.484Z,18.65
2018-03-25T00:36:31.058Z,18.62
2018-03-25T00:37:31.631Z,18.65
2018-03-25T00:38:32.253Z,18.65
2018-03-25T00:39:32.826Z,18.60
2018-03-25T00:40:38.452Z,18.58
2018-03-25T00:41:39.026Z,18.52
2018-03-25T00:42:39.599Z,18.68
2018-03-25T00:43:40.171Z,18.49
2018-03-25T00:44:40.743Z,18.50
2018-03-25T00:45:41.319Z,18.47
2018-03-25T00:46:41.890Z,18.53
2018-03-25T00:47:42.461Z,18.58
2018-03-25T00:48:43.038Z,18.56
2018-03-25T00:49:43.659Z,18.55
2018-03-25T00:50:44.233Z,18.52
2018-03-25T00:51:44.806Z,18.49
2018-03-25T00:52:45.380Z,18.47
2018-03-25T00:53:46.004Z,18.47
2018-03-25T00:54:46.578Z,18.47
2018-03-25T00:55:47.150Z,18.45
2018-03-25T00:56:47.725Z,18.49
2018-03-25T00:57:48.296Z,18.41
2018-03-25T00:58:48.871Z,18.40
2018-03-25T00:59:49.444Z,18.40
2018-03-25T01:00:50.067Z,18.38
2018-03-25T01:01:50.640Z,18.45
2018-03-25T01:02:51.212Z,18.38
2018-03-25T01:03:51.785Z,18.40
2018-03-25T01:04:52.359Z,18.33
2018-03-25T01:05:52.932Z,18.25
2018-03-25T01:06:53.507Z,18.34
2018-03-25T01:07:54.130Z,18.31
2018-03-25T01:08:54.703Z,18.29
2018-03-25T01:09:55.326Z,18.28
2018-03-25T01:10:55.899Z,18.26
2018-03-25T01:11:56.524Z,18.28
2018-03-25T01:12:57.098Z,18.28
2018-03-25T01:13:57.714Z,18.25
2018-03-25T01:14:58.288Z,18.22
2018-03-25T01:15:58.862Z,18.26
2018-03-25T01:16:59.438Z,18.22
2018-03-25T01:18:00.010Z,18.20
2018-03-25T01:19:00.581Z,18.19
2018-03-25T01:20:01.158Z,18.20
2018-03-25T01:21:01.726Z,18.22
2018-03-25T01:22:02.343Z,18.25
2018-03-25T01:23:02.914Z,18.22
2018-03-25T01:24:08.492Z,18.19
2018-03-25T01:25:09.111Z,18.18
2018-03-25T01:26:09.682Z,18.22
2018-03-25T01:27:10.255Z,18.10
2018-03-25T01:28:10.879Z,18.15
2018-03-25T01:29:11.502Z,18.05
2018-03-25T01:30:12.075Z,18.05
2018-03-25T01:31:12.646Z,18.16
2018-03-25T01:32:13.220Z,18.16
2018-03-25T01:33:13.797Z,18.07
2018-03-25T01:34:14.368Z,18.11
2018-03-25T01:35:14.939Z,18.04
2018-03-25T01:36:15.511Z,18.07
2018-03-25T01:37:16.085Z,18.00
2018-03-25T01:38:16.656Z,18.00
2018-03-25T01:39:17.229Z,17.98
2018-03-25T01:40:17.805Z,17.98
2018-03-25T01:41:18.378Z,18.03
2018-03-25T01:42:18.949Z,17.97
2018-03-25T01:43:19.524Z,17.94
2018-03-25T01:44:20.148Z,17.92
2018-03-25T01:45:20.723Z,17.86
2018-03-25T01:46:21.347Z,17.89
2018-03-25T01:47:21.971Z,17.82
2018-03-25T01:48:22.541Z,17.87
2018-03-25T01:49:23.114Z,17.90
2018-03-25T01:50:23.687Z,17.85
2018-03-25T01:51:24.304Z,17.82
2018-03-25T01:52:24.877Z,17.86
2018-03-25T01:53:25.451Z,17.83
2018-03-25T01:54:26.065Z,17.82
2018-03-25T01:55:26.639Z,17.83
2018-03-25T01:56:27.212Z,17.82
2018-03-25T01:57:27.784Z,17.90
2018-03-25T01:58:28.360Z,17.90
2018-03-25T01:59:28.931Z,17.78
2018-03-25T02:00:29.551Z,17.83
2018-03-25T02:01:30.278Z,17.78
2018-03-25T02:02:30.847Z,17.76
2018-03-25T02:03:31.469Z,17.79
2018-03-25T02:04:32.043Z,17.74
2018-03-25T02:05:32.616Z,17.74
2018-03-25T02:06:33.188Z,17.76
2018-03-25T02:07:33.761Z,17.76
2018-03-25T02:08:34.378Z,17.71
2018-03-25T02:09:34.952Z,17.78
2018-03-25T02:10:35.529Z,17.74
2018-03-25T02:11:36.101Z,17.71
2018-03-25T02:12:36.669Z,17.76
2018-03-25T02:13:37.242Z,17.68
2018-03-25T02:14:37.813Z,17.74
2018-03-25T02:15:38.388Z,17.74
2018-03-25T02:16:38.961Z,17.70
2018-03-25T02:17:39.583Z,17.70
2018-03-25T02:18:40.205Z,17.72
2018-03-25T02:19:40.777Z,17.71
2018-03-25T02:20:41.400Z,17.68
2018-03-25T02:21:41.975Z,17.71
2018-03-25T02:22:42.590Z,17.68
2018-03-25T02:23:43.164Z,17.67
2018-03-25T02:24:43.735Z,17.67
2018-03-25T02:25:44.352Z,17.72
2018-03-25T02:26:44.884Z,17.65
2018-03-25T02:27:45.458Z,17.56
2018-03-25T02:28:46.032Z,17.60
2018-03-25T02:29:46.604Z,17.56
2018-03-25T02:30:47.184Z,17.59
2018-03-25T02:31:47.752Z,17.57
2018-03-25T02:32:48.325Z,17.56
2018-03-25T02:33:48.898Z,17.54
2018-03-25T02:34:49.472Z,17.52
2018-03-25T02:35:50.095Z,17.56
2018-03-25T02:36:50.719Z,17.49
2018-03-25T02:37:51.295Z,17.46
2018-03-25T02:38:51.867Z,17.49
2018-03-25T02:39:52.439Z,17.44
2018-03-25T02:40:53.010Z,17.46
2018-03-25T02:41:53.590Z,17.54
2018-03-25T02:42:54.205Z,17.49
2018-03-25T02:43:54.778Z,17.52
2018-03-25T02:44:55.349Z,17.46
2018-03-25T02:45:55.923Z,17.45
2018-03-25T02:46:56.494Z,17.48
2018-03-25T02:47:57.065Z,17.41
2018-03-25T02:48:57.638Z,17.46
2018-03-25T02:49:58.256Z,17.46
2018-03-25T02:50:58.783Z,17.51
2018-03-25T02:51:59.356Z,17.49
2018-03-25T02:52:59.928Z,17.46
2018-03-25T02:54:00.550Z,17.45
2018-03-25T02:55:01.123Z,17.41
2018-03-25T02:56:01.694Z,17.45
2018-03-25T02:57:02.269Z,17.46
2018-03-25T02:58:02.840Z,17.46
2018-03-25T02:59:03.563Z,17.44
2018-03-25T03:00:04.136Z,17.42
2018-03-25T03:01:04.710Z,17.42
2018-03-25T03:02:05.284Z,17.46
2018-03-25T03:03:05.897Z,17.46
2018-03-25T03:04:11.523Z,17.45
2018-03-25T03:05:12.098Z,17.42
2018-03-25T03:06:12.671Z,17.45
2018-03-25T03:07:13.243Z,17.46
2018-03-25T03:08:13.819Z,17.42
2018-03-25T03:09:14.438Z,17.42
2018-03-25T03:10:15.016Z,17.42
2018-03-25T03:11:15.633Z,17.39
2018-03-25T03:12:16.206Z,17.38
2018-03-25T03:13:16.779Z,17.44
2018-03-25T03:14:17.499Z,17.42
2018-03-25T03:15:18.071Z,17.42
2018-03-25T03:16:18.643Z,17.45
2018-03-25T03:17:19.217Z,17.34
2018-03-25T03:18:19.791Z,17.36
2018-03-25T03:19:20.365Z,17.24
2018-03-25T03:20:20.949Z,17.29
2018-03-25T03:21:21.507Z,17.36
2018-03-25T03:22:22.084Z,17.27
2018-03-25T03:23:22.655Z,17.34
2018-03-25T03:24:23.228Z,17.39
2018-03-25T03:25:23.801Z,17.36
2018-03-25T03:26:24.424Z,17.33
2018-03-25T03:27:25.048Z,17.30
2018-03-25T03:28:25.621Z,17.36
2018-03-25T03:29:26.196Z,17.38
2018-03-25T03:30:26.770Z,17.31
2018-03-25T03:31:27.390Z,17.26
2018-03-25T03:32:28.022Z,17.27
2018-03-25T03:33:28.584Z,17.23
2018-03-25T03:34:29.156Z,17.22
2018-03-25T03:35:29.728Z,17.22
2018-03-25T03:36:30.300Z,17.08
2018-03-25T03:37:30.873Z,17.27
2018-03-25T03:38:31.447Z,17.22
2018-03-25T03:39:32.023Z,17.23
2018-03-25T03:40:32.592Z,17.27
2018-03-25T03:41:33.163Z,17.26
2018-03-25T03:42:33.736Z,17.24
2018-03-25T03:43:34.310Z,17.15
2018-03-25T03:44:34.933Z,17.12
2018-03-25T03:45:35.504Z,17.19
2018-03-25T03:46:36.079Z,17.20
2018-03-25T03:47:36.700Z,17.15
2018-03-25T03:48:37.274Z,17.11
2018-03-25T03:49:37.896Z,17.16
2018-03-25T03:50:38.469Z,17.16
2018-03-25T03:51:39.040Z,17.16
2018-03-25T03:52:39.613Z,17.09
2018-03-25T03:53:40.187Z,17.06
2018-03-25T03:54:40.760Z,17.20
2018-03-25T03:55:41.332Z,17.04
2018-03-25T03:56:41.904Z,17.14
2018-03-25T03:57:42.531Z,17.08
2018-03-25T03:58:43.144Z,17.05
2018-03-25T03:59:43.718Z,17.06
2018-03-25T04:00:44.340Z,17.09
2018-03-25T04:01:44.911Z,17.11
2018-03-25T04:02:45.483Z,17.06
2018-03-25T04:03:46.056Z,17.04
2018-03-25T04:04:46.681Z,17.04
2018-03-25T04:05:47.254Z,17.02
2018-03-25T04:06:47.833Z,17.02
2018-03-25T04:07:48.449Z,17.05
2018-03-25T04:08:49.020Z,17.02
2018-03-25T04:09:49.593Z,17.05
2018-03-25T04:10:50.167Z,17.01
2018-03-25T04:11:50.738Z,16.97
2018-03-25T04:12:51.308Z,17.05
2018-03-25T04:13:51.884Z,16.96
2018-03-25T04:14:52.504Z,17.04
2018-03-25T04:15:53.070Z,17.01
2018-03-25T04:16:53.641Z,16.96
2018-03-25T04:17:54.264Z,16.97
2018-03-25T04:18:54.836Z,16.99
2018-03-25T04:19:55.456Z,16.99
2018-03-25T04:20:56.028Z,16.93
2018-03-25T04:21:56.601Z,16.91
2018-03-25T04:22:57.175Z,16.94
2018-03-25T04:23:57.797Z,16.97
2018-03-25T04:24:58.376Z,16.96
2018-03-25T04:25:58.994Z,16.99
2018-03-25T04:26:59.568Z,16.96
2018-03-25T04:28:00.141Z,16.97
2018-03-25T04:29:00.711Z,16.99
2018-03-25T04:30:01.286Z,16.94
2018-03-25T04:31:01.858Z,16.96
2018-03-25T04:32:02.428Z,17.01
2018-03-25T04:33:03.004Z,16.93
2018-03-25T04:34:03.577Z,16.94
2018-03-25T04:35:04.201Z,16.99
2018-03-25T04:36:04.774Z,16.90
2018-03-25T04:37:05.347Z,16.93
2018-03-25T04:38:05.918Z,16.97
2018-03-25T04:39:06.541Z,16.90
2018-03-25T04:40:07.113Z,16.96
2018-03-25T04:41:07.685Z,16.90
2018-03-25T04:42:08.307Z,16.86
2018-03-25T04:43:08.879Z,16.96
2018-03-25T04:44:09.456Z,16.91
2018-03-25T04:45:10.027Z,16.94
2018-03-25T04:46:10.597Z,16.99
2018-03-25T04:47:11.167Z,16.87
2018-03-25T04:48:11.739Z,16.91
2018-03-25T04:49:12.310Z,16.96
2018-03-25T04:50:12.933Z,16.93
2018-03-25T04:51:13.548Z,16.90
2018-03-25T04:52:14.120Z,16.97
2018-03-25T04:53:14.694Z,16.93
2018-03-25T04:54:15.266Z,16.97
2018-03-25T04:55:15.890Z,17.01
2018-03-25T04:56:16.464Z,16.96
2018-03-25T04:57:17.034Z,16.94
2018-03-25T04:58:17.655Z,16.96
2018-03-25T04:59:18.228Z,16.93
2018-03-25T05:00:18.801Z,16.86
2018-03-25T05:01:19.373Z,16.79
2018-03-25T05:02:19.945Z,16.83
2018-03-25T05:03:20.516Z,16.91
2018-03-25T05:04:21.089Z,16.89
2018-03-25T05:05:21.660Z,16.79
2018-03-25T05:06:22.236Z,16.86
2018-03-25T05:07:22.804Z,16.87
2018-03-25T05:08:23.378Z,16.89
2018-03-25T05:09:23.948Z,16.90
2018-03-25T05:10:24.571Z,16.90
2018-03-25T05:11:25.144Z,16.91
2018-03-25T05:12:25.866Z,16.89
2018-03-25T05:13:26.497Z,16.89
2018-03-25T05:14:27.065Z,16.89
2018-03-25T05:15:27.638Z,16.93
2018-03-25T05:16:28.214Z,16.87
2018-03-25T05:17:28.783Z,16.86
2018-03-25T05:18:29.404Z,16.87
2018-03-25T05:19:29.976Z,16.86
2018-03-25T05:20:30.549Z,16.93
2018-03-25T05:21:31.120Z,16.89
2018-03-25T05:22:31.693Z,16.86
2018-03-25T05:23:32.266Z,16.83
2018-03-25T05:24:32.838Z,16.89
2018-03-25T05:25:33.410Z,16.89
2018-03-25T05:26:34.024Z,16.83
2018-03-25T05:27:34.596Z,16.86
2018-03-25T05:28:35.219Z,16.81
2018-03-25T05:29:35.839Z,16.90
2018-03-25T05:30:36.514Z,16.79
2018-03-25T05:31:37.137Z,16.87
2018-03-25T05:32:37.709Z,16.91
2018-03-25T05:33:38.329Z,16.84
2018-03-25T05:34:38.954Z,16.87
2018-03-25T05:35:39.528Z,16.91
2018-03-25T05:36:40.101Z,16.83
2018-03-25T05:37:40.675Z,16.83
2018-03-25T05:38:41.247Z,16.81
2018-03-25T05:39:41.819Z,16.86
2018-03-25T05:40:42.393Z,16.90
2018-03-25T05:41:42.965Z,16.81
2018-03-25T05:42:43.536Z,16.84
2018-03-25T05:43:44.108Z,16.74
2018-03-25T05:44:44.681Z,16.78
2018-03-25T05:45:45.255Z,16.86
2018-03-25T05:46:45.874Z,16.86
2018-03-25T05:47:46.487Z,16.76
2018-03-25T05:48:47.060Z,16.79
2018-03-25T05:49:47.683Z,16.83
2018-03-25T05:50:48.410Z,16.87
2018-03-25T05:51:48.978Z,16.83
2018-03-25T05:52:49.549Z,16.81
2018-03-25T05:53:50.120Z,16.74
2018-03-25T05:54:50.842Z,16.79
2018-03-25T05:55:51.419Z,16.79
2018-03-25T05:56:51.985Z,16.78
2018-03-25T05:57:52.558Z,16.79
2018-03-25T05:58:53.131Z,16.74
2018-03-25T05:59:53.702Z,16.74
2018-03-25T06:00:54.274Z,16.74
2018-03-25T06:01:54.848Z,16.69
2018-03-25T06:02:55.420Z,16.65
2018-03-25T06:03:55.992Z,16.69
2018-03-25T06:04:56.565Z,16.58
2018-03-25T06:05:57.290Z,16.61
2018-03-25T06:06:57.904Z,16.65
2018-03-25T06:07:58.475Z,16.58
2018-03-25T06:08:59.099Z,16.66
2018-03-25T06:09:59.724Z,16.57
2018-03-25T06:11:00.292Z,16.58
2018-03-25T06:12:00.864Z,16.56
2018-03-25T06:13:01.438Z,16.66
2018-03-25T06:14:02.009Z,16.57
2018-03-25T06:15:02.632Z,16.58
2018-03-25T06:16:03.227Z,16.65
2018-03-25T06:17:03.774Z,16.61
2018-03-25T06:18:04.398Z,16.64
2018-03-25T06:19:04.970Z,16.65
2018-03-25T06:20:05.541Z,16.61
2018-03-25T06:21:06.121Z,16.60
2018-03-25T06:22:06.686Z,16.60
2018-03-25T06:23:07.259Z,16.60
2018-03-25T06:24:07.830Z,16.66
2018-03-25T06:25:08.455Z,16.66
2018-03-25T06:26:09.067Z,16.69
2018-03-25T06:27:09.639Z,16.60
2018-03-25T06:28:10.262Z,16.66
2018-03-25T06:29:10.885Z,16.60
2018-03-25T06:30:11.461Z,16.64
2018-03-25T06:31:12.028Z,16.57
2018-03-25T06:32:12.601Z,16.57
2018-03-25T06:33:13.172Z,16.61
2018-03-25T06:34:13.744Z,16.61
2018-03-25T06:35:14.316Z,16.60
2018-03-25T06:36:14.888Z,16.60
2018-03-25T06:37:15.461Z,16.54
2018-03-25T06:38:16.061Z,16.56
2018-03-25T06:39:16.605Z,16.60
2018-03-25T06:40:17.215Z,16.56
2018-03-25T06:41:17.788Z,16.60
2018-03-25T06:42:18.360Z,16.51
2018-03-25T06:43:18.932Z,16.53
2018-03-25T06:44:19.505Z,16.43
2018-03-25T06:45:20.127Z,16.54
2018-03-25T06:46:20.754Z,16.49
2018-03-25T06:47:21.326Z,16.53
2018-03-25T06:48:21.900Z,16.49
2018-03-25T06:49:22.564Z,16.43
2018-03-25T06:50:23.137Z,16.43
2018-03-25T06:51:23.708Z,16.47
2018-03-25T06:52:24.277Z,16.41
2018-03-25T06:53:24.849Z,16.47
2018-03-25T06:54:25.424Z,16.43
2018-03-25T06:55:25.992Z,16.43
2018-03-25T06:56:26.564Z,16.46
2018-03-25T06:57:27.137Z,16.47
2018-03-25T06:58:27.708Z,16.51
2018-03-25T06:59:28.283Z,16.42
2018-03-25T07:00:28.854Z,16.47
2018-03-25T07:01:29.426Z,16.46
2018-03-25T07:02:30.039Z,16.41
2018-03-25T07:03:30.613Z,16.43
2018-03-25T07:04:31.234Z,16.42
2018-03-25T07:05:31.856Z,16.46
2018-03-25T07:06:32.430Z,16.46
2018-03-25T07:07:33.000Z,16.42
2018-03-25T07:08:33.630Z,16.41
2018-03-25T07:09:34.144Z,16.43
2018-03-25T07:10:34.867Z,16.42
2018-03-25T07:11:35.441Z,16.39
2018-03-25T07:12:36.011Z,16.39
2018-03-25T07:13:36.585Z,16.38
2018-03-25T07:14:37.196Z,16.42
2018-03-25T07:15:37.767Z,16.33
2018-03-25T07:16:38.339Z,16.38
2018-03-25T07:17:38.911Z,16.36
2018-03-25T07:18:39.485Z,16.36
2018-03-25T07:19:57.833Z,16.35
2018-03-25T07:20:58.412Z,16.38
2018-03-25T07:21:58.992Z,16.36
2018-03-25T07:22:59.772Z,16.36
2018-03-25T07:24:00.354Z,16.29
2018-03-25T07:25:00.928Z,16.31
2018-03-25T07:26:01.507Z,16.38
2018-03-25T07:27:02.135Z,16.33
2018-03-25T07:28:02.764Z,16.32
2018-03-25T07:29:03.342Z,16.33
2018-03-25T07:30:03.921Z,16.32
2018-03-25T07:31:04.497Z,16.33
2018-03-25T07:32:05.082Z,16.33
2018-03-25T07:33:05.698Z,16.32
2018-03-25T07:34:06.276Z,16.33
2018-03-25T07:35:06.852Z,16.35
2018-03-25T07:36:07.430Z,16.38
2018-03-25T07:37:08.006Z,16.36
2018-03-25T07:38:08.582Z,16.32
2018-03-25T07:39:09.158Z,16.31
2018-03-25T07:40:09.734Z,16.35
2018-03-25T07:41:10.310Z,16.31
2018-03-25T07:42:10.978Z,16.31
2018-03-25T07:43:11.555Z,16.24
2018-03-25T07:44:12.133Z,16.20
2018-03-25T07:45:12.710Z,16.20
2018-03-25T07:46:13.288Z,16.16
2018-03-25T07:47:13.915Z,16.28
2018-03-25T07:48:14.494Z,16.24
2018-03-25T07:49:15.114Z,16.20
2018-03-25T07:50:15.708Z,16.21
2018-03-25T07:51:16.268Z,16.21
2018-03-25T07:52:16.850Z,16.24
2018-03-25T07:53:17.427Z,16.10
2018-03-25T07:54:18.006Z,16.28
2018-03-25T07:55:18.584Z,16.23
2018-03-25T07:56:19.213Z,16.20
2018-03-25T07:57:19.788Z,16.23
2018-03-25T07:58:20.421Z,16.16
2018-03-25T07:59:20.993Z,16.24
2018-03-25T08:00:21.571Z,16.20
2018-03-25T08:01:22.187Z,16.23
2018-03-25T08:02:22.814Z,16.15
2018-03-25T08:03:23.390Z,16.23
2018-03-25T08:04:23.971Z,16.16
2018-03-25T08:05:24.591Z,16.12
2018-03-25T08:06:25.167Z,16.09
2018-03-25T08:07:25.742Z,16.17
2018-03-25T08:08:26.318Z,16.15
2018-03-25T08:09:26.895Z,16.20
2018-03-25T08:10:27.470Z,16.15
2018-03-25T08:11:28.056Z,16.17
2018-03-25T08:12:28.665Z,16.26
2018-03-25T08:13:29.282Z,16.12
2018-03-25T08:14:29.858Z,16.17
2018-03-25T08:15:30.435Z,16.28
2018-03-25T08:16:31.011Z,16.21
2018-03-25T08:17:31.640Z,16.23
2018-03-25T08:18:32.266Z,16.10
2018-03-25T08:19:32.843Z,16.17
2018-03-25T08:20:33.473Z,16.23
2018-03-25T08:21:34.137Z,16.12
2018-03-25T08:22:34.663Z,16.23
2018-03-25T08:23:35.239Z,16.21
2018-03-25T08:24:35.814Z,16.12
2018-03-25T08:25:36.392Z,16.20
2018-03-25T08:26:36.970Z,16.09
2018-03-25T08:27:37.590Z,16.24
2018-03-25T08:28:38.175Z,16.17
2018-03-25T08:29:38.746Z,16.23
2018-03-25T08:30:39.323Z,16.15
2018-03-25T08:31:39.897Z,16.12
2018-03-25T08:32:40.528Z,16.15
2018-03-25T08:33:41.146Z,16.10
2018-03-25T08:34:41.722Z,16.04
2018-03-25T08:35:42.299Z,16.08
2018-03-25T08:36:42.925Z,16.04
2018-03-25T08:37:43.503Z,16.02
2018-03-25T08:38:44.080Z,16.05
2018-03-25T08:39:44.655Z,16.09
2018-03-25T08:40:45.233Z,15.91
2018-03-25T08:41:45.859Z,15.88
2018-03-25T08:42:46.434Z,15.83
2018-03-25T08:43:47.010Z,15.83
2018-03-25T08:44:47.588Z,15.86
2018-03-25T08:45:48.212Z,15.90
2018-03-25T08:46:48.787Z,15.80
2018-03-25T08:47:49.362Z,15.86
2018-03-25T08:48:49.937Z,15.90
2018-03-25T08:49:50.511Z,15.92
2018-03-25T08:50:51.137Z,15.86
2018-03-25T08:51:51.715Z,15.92
2018-03-25T08:52:52.297Z,15.95
2018-03-25T08:53:52.867Z,15.90
2018-03-25T08:54:53.445Z,15.92
2018-03-25T08:55:54.071Z,15.77
2018-03-25T08:56:54.646Z,15.84
2018-03-25T08:57:55.224Z,15.79
2018-03-25T08:58:55.803Z,15.76
2018-03-25T08:59:56.382Z,15.73
2018-03-25T09:00:57.005Z,15.75
2018-03-25T09:01:57.586Z,15.73
2018-03-25T09:02:58.198Z,15.70
2018-03-25T09:03:58.803Z,15.70
2018-03-25T09:04:59.354Z,15.76
2018-03-25T09:05:59.980Z,15.75
2018-03-25T09:07:00.555Z,15.72
2018-03-25T09:08:01.133Z,15.68
2018-03-25T09:09:01.709Z,15.83
2018-03-25T09:10:02.288Z,15.73
2018-03-25T09:11:02.865Z,15.75
2018-03-25T09:12:03.491Z,15.80
2018-03-25T09:13:04.067Z,15.65
2018-03-25T09:14:04.642Z,15.75
2018-03-25T09:15:05.220Z,15.70
2018-03-25T09:16:05.797Z,15.64
2018-03-25T09:17:06.374Z,15.61
2018-03-25T09:18:06.951Z,15.65
2018-03-25T09:19:07.528Z,15.67
2018-03-25T09:20:08.104Z,15.76
2018-03-25T09:21:08.728Z,15.76
2018-03-25T09:22:09.313Z,15.73
2018-03-25T09:23:09.931Z,15.73
2018-03-25T09:24:10.507Z,15.72
2018-03-25T09:25:11.082Z,15.76
2018-03-25T09:26:11.657Z,15.76
2018-03-25T09:27:12.274Z,15.72
2018-03-25T09:28:12.900Z,15.84
2018-03-25T09:29:13.526Z,15.84
2018-03-25T09:30:14.110Z,15.88
2018-03-25T09:31:14.720Z,15.83
2018-03-25T09:32:15.342Z,15.95
2018-03-25T09:33:15.915Z,15.91
2018-03-25T09:34:16.491Z,15.94
2018-03-25T09:35:17.069Z,15.84
2018-03-25T09:36:17.646Z,15.84
2018-03-25T09:37:18.251Z,15.80
2018-03-25T09:38:18.799Z,15.72
2018-03-25T09:39:19.423Z,15.80
2018-03-25T09:40:20.001Z,15.80
2018-03-25T09:41:20.728Z,15.94
2018-03-25T09:42:21.305Z,15.92
2018-03-25T09:43:21.881Z,15.80
2018-03-25T09:44:22.510Z,15.82
2018-03-25T09:45:23.086Z,15.84
2018-03-25T09:46:23.662Z,15.84
2018-03-25T09:47:24.241Z,15.86
2018-03-25T09:48:24.817Z,15.82
2018-03-25T09:49:25.395Z,15.90
2018-03-25T09:50:25.968Z,15.86
2018-03-25T09:51:26.554Z,15.86
2018-03-25T09:52:27.121Z,15.79
2018-03-25T09:53:27.748Z,15.82
2018-03-25T09:54:28.328Z,15.90
2018-03-25T09:55:28.900Z,15.77
2018-03-25T09:56:29.480Z,15.82
2018-03-25T09:57:30.055Z,15.83
2018-03-25T09:58:30.729Z,15.73
2018-03-25T09:59:31.312Z,15.77
2018-03-25T10:00:31.884Z,15.75
2018-03-25T10:01:32.461Z,15.76
2018-03-25T10:02:33.038Z,15.59
2018-03-25T10:03:33.616Z,15.61
2018-03-25T10:04:34.203Z,15.67
2018-03-25T10:05:34.764Z,15.77
2018-03-25T10:06:35.341Z,15.68
2018-03-25T10:07:35.918Z,15.70
2018-03-25T10:08:36.537Z,15.70
2018-03-25T10:09:37.135Z,15.68
2018-03-25T10:10:37.690Z,15.70
2018-03-25T10:11:38.263Z,15.65
2018-03-25T10:12:38.842Z,15.70
2018-03-25T10:13:39.422Z,15.55
2018-03-25T10:14:40.053Z,15.61
2018-03-25T10:15:40.682Z,15.76
2018-03-25T10:16:41.368Z,15.82
2018-03-25T10:17:41.896Z,15.94
2018-03-25T10:18:42.481Z,16.05
2018-03-25T10:19:43.061Z,16.16
2018-03-25T10:20:43.644Z,16.23
2018-03-25T10:21:44.223Z,16.32
2018-03-25T10:22:44.804Z,16.36
2018-03-25T10:23:45.387Z,16.42
2018-03-25T10:24:45.966Z,16.42
2018-03-25T10:25:46.566Z,16.60
2018-03-25T10:26:47.135Z,16.58
2018-03-25T10:27:47.712Z,16.66
2018-03-25T10:28:48.292Z,16.61
2018-03-25T10:29:48.876Z,16.69
2018-03-25T10:30:49.509Z,16.71
2018-03-25T10:31:50.141Z,16.83
2018-03-25T10:32:50.772Z,16.89
2018-03-25T10:33:51.356Z,16.84
2018-03-25T10:34:51.964Z,16.90
2018-03-25T10:35:52.524Z,17.02
2018-03-25T10:36:53.103Z,16.93
2018-03-25T10:37:53.684Z,16.91
2018-03-25T10:38:54.265Z,16.94
2018-03-25T10:39:54.851Z,17.01
2018-03-25T10:40:55.431Z,17.05
2018-03-25T10:41:56.017Z,17.12
2018-03-25T10:42:56.598Z,17.11
2018-03-25T10:43:57.182Z,17.24
2018-03-25T10:44:57.806Z,17.24
2018-03-25T10:45:58.389Z,17.27
2018-03-25T10:46:58.971Z,17.33
2018-03-25T10:47:59.705Z,17.27
2018-03-25T10:49:00.289Z,17.39
2018-03-25T10:50:00.876Z,17.39
2018-03-25T10:51:01.654Z,17.44
2018-03-25T10:52:02.280Z,17.46
2018-03-25T10:53:02.865Z,17.46
2018-03-25T10:54:03.450Z,17.54
2018-03-25T10:55:04.034Z,17.57
2018-03-25T10:56:04.619Z,17.59
2018-03-25T10:57:05.205Z,17.70
2018-03-25T10:58:05.791Z,17.79
2018-03-25T10:59:06.375Z,17.80
2018-03-25T11:00:07.012Z,17.85
2018-03-25T11:01:07.602Z,17.80
2018-03-25T11:02:08.187Z,17.87
2018-03-25T11:03:08.775Z,17.89
2018-03-25T11:04:09.414Z,17.95
2018-03-25T11:05:10.004Z,17.98
2018-03-25T11:06:10.591Z,18.00
2018-03-25T11:07:11.182Z,18.03
2018-03-25T11:08:11.766Z,18.23
2018-03-25T11:09:12.357Z,18.22
2018-03-25T11:10:12.944Z,18.25
2018-03-25T11:11:13.533Z,18.37
2018-03-25T11:12:14.126Z,18.43
2018-03-25T11:13:14.713Z,18.40
2018-03-25T11:14:15.305Z,18.49
2018-03-25T11:15:15.893Z,18.50
2018-03-25T11:16:16.634Z,18.50
2018-03-25T11:17:17.265Z,18.66
2018-03-25T11:18:17.817Z,18.62
2018-03-25T11:19:18.411Z,18.74
2018-03-25T11:20:19.054Z,18.73
2018-03-25T11:21:19.644Z,18.74
2018-03-25T11:22:20.237Z,18.86
2018-03-25T11:23:21.833Z,18.89
2018-03-25T11:24:22.477Z,18.86
2018-03-25T11:28:27.811Z,19.09
2018-03-25T11:29:28.407Z,19.18
2018-03-25T11:30:29.050Z,19.18
2018-03-25T11:31:29.696Z,19.22
2018-03-25T11:32:30.291Z,19.33
2018-03-25T11:33:30.885Z,19.34
2018-03-25T11:34:31.478Z,19.47
2018-03-25T11:35:32.073Z,19.45
2018-03-25T11:36:32.666Z,19.58
2018-03-25T11:37:33.514Z,19.62
2018-03-25T11:38:34.110Z,19.74
2018-03-25T11:39:47.455Z,19.86
2018-03-25T11:40:48.050Z,19.91
2018-03-25T11:41:48.645Z,20.04
2018-03-25T11:43:50.825Z,20.13
2018-03-25T11:44:51.421Z,20.21
2018-03-25T11:45:52.011Z,20.31
2018-03-25T11:46:52.657Z,20.39
2018-03-25T11:47:53.255Z,20.43
2018-03-25T11:48:53.902Z,20.56
2018-03-25T11:49:54.498Z,20.65
2018-03-25T11:50:55.095Z,20.60
2018-03-25T11:52:57.279Z,20.74
2018-03-25T11:53:57.866Z,20.90
2018-03-25T11:54:58.458Z,20.90
2018-03-25T11:55:59.099Z,20.99
2018-03-25T11:56:59.691Z,21.09
2018-03-25T11:58:00.284Z,21.02
2018-03-25T11:59:00.877Z,21.07
2018-03-25T12:00:01.471Z,21.15
2018-03-25T12:01:02.063Z,21.15
2018-03-25T12:02:02.657Z,21.29
2018-03-25T12:03:03.253Z,21.32
2018-03-25T12:04:03.899Z,21.45
2018-03-25T12:05:04.490Z,21.48
2018-03-25T12:06:05.090Z,21.61
2018-03-25T12:07:05.743Z,21.67
2018-03-25T12:08:06.384Z,21.73
2018-03-25T12:09:06.986Z,21.77
2018-03-25T12:10:07.584Z,21.92
2018-03-25T12:11:08.200Z,21.96
2018-03-25T12:12:08.783Z,21.98
2018-03-25T12:13:09.432Z,22.07
2018-03-25T12:14:10.050Z,22.13
2018-03-25T12:15:10.684Z,22.15
2018-03-25T12:16:11.284Z,22.28
2018-03-25T12:17:11.887Z,22.36
2018-03-25T12:18:12.484Z,22.41
2018-03-25T12:19:13.084Z,22.48
2018-03-25T12:20:13.682Z,22.63
2018-03-25T12:21:14.283Z,22.60
2018-03-25T12:22:14.882Z,22.70
2018-03-25T12:23:15.531Z,22.73
2018-03-25T12:24:16.131Z,22.81
2018-03-25T12:25:16.731Z,22.96
2018-03-25T12:26:17.333Z,23.06
2018-03-25T12:27:17.934Z,23.08
2018-03-25T12:28:18.534Z,23.18
2018-03-25T12:29:19.184Z,23.25
2018-03-25T12:30:19.783Z,23.43
2018-03-25T12:31:20.384Z,23.46
2018-03-25T12:32:20.983Z,23.56
2018-03-25T12:33:21.633Z,23.73
2018-03-25T12:34:22.235Z,23.78
2018-03-25T12:35:22.833Z,23.77
2018-03-25T12:36:23.432Z,23.91
2018-03-25T12:37:24.031Z,23.96
2018-03-25T12:38:24.630Z,24.11
2018-03-25T12:39:25.238Z,24.20
2018-03-25T12:40:25.831Z,24.23
2018-03-25T12:41:26.480Z,24.28
2018-03-25T12:42:27.081Z,24.42
2018-03-25T12:43:27.721Z,24.50
2018-03-25T12:44:28.321Z,24.50
2018-03-25T12:45:28.919Z,24.58
2018-03-25T12:46:29.519Z,24.69
2018-03-25T12:47:30.169Z,24.77
2018-03-25T12:48:30.769Z,24.86
2018-03-25T12:49:31.368Z,24.96
2018-03-25T12:50:31.965Z,24.96
2018-03-25T12:51:32.567Z,25.01
2018-03-25T12:52:33.166Z,24.99
2018-03-25T12:53:33.764Z,25.06
2018-03-25T12:54:34.365Z,25.18
2018-03-25T12:55:35.016Z,25.22
2018-03-25T12:56:35.614Z,25.36
2018-03-25T12:57:36.214Z,25.33
2018-03-25T12:58:36.815Z,25.50
2018-03-25T12:59:37.414Z,25.47
2018-03-25T13:00:38.016Z,25.51
2018-03-25T13:01:38.654Z,25.68
2018-03-25T13:02:39.267Z,25.58
2018-03-25T13:03:39.866Z,25.65
2018-03-25T13:04:40.466Z,25.83
2018-03-25T13:05:41.071Z,25.85
2018-03-25T13:06:41.668Z,26.00
2018-03-25T13:07:42.321Z,26.10